createdAt,value
2018-02-20T00:02:14.078Z,-1.20
2018-02-20T00:04:41.639Z,-1.30
2018-02-20T00:07:09.931Z,-1.30
2018-02-20T00:09:37.514Z,-1.30
2018-02-20T00:12:05.119Z,-1.30
2018-02-20T00:14:32.698Z,-1.30
2018-02-20T00:17:00.271Z,-1.30
2018-02-20T00:19:27.863Z,-1.30
2018-02-20T00:21:56.220Z,-1.30
2018-02-20T00:24:23.896Z,-1.30
2018-02-20T00:26:51.464Z,-1.30
2018-02-20T00:29:19.807Z,-1.40
2018-02-20T00:31:47.311Z,-1.40
2018-02-20T00:34:15.562Z,-1.50
2018-02-20T00:36:43.055Z,-1.50
2018-02-20T00:39:11.308Z,-1.50
2018-02-20T00:41:38.888Z,-1.50
2018-02-20T00:44:07.148Z,-1.50
2018-02-20T00:46:34.724Z,-1.50
2018-02-20T00:49:03.000Z,-1.60
2018-02-20T00:51:31.251Z,-1.60
2018-02-20T00:53:58.742Z,-1.60
2018-02-20T00:56:27.011Z,-1.60
2018-02-20T00:58:55.282Z,-1.70
2018-02-20T01:01:23.531Z,-1.70
2018-02-20T01:03:51.200Z,-1.70
2018-02-20T01:06:18.696Z,-1.70
2018-02-20T01:08:46.208Z,-1.70
2018-02-20T01:11:13.700Z,-1.70
2018-02-20T01:13:41.981Z,-1.80
2018-02-20T01:16:10.229Z,-1.80
2018-02-20T01:18:37.719Z,-1.80
2018-02-20T01:21:05.984Z,-1.70
2018-02-20T01:23:34.246Z,-1.80
2018-02-20T01:26:01.754Z,-1.80
2018-02-20T01:28:29.298Z,-1.80
2018-02-20T01:33:48.351Z,-1.90
2018-02-20T01:36:16.609Z,-1.90
2018-02-20T01:38:44.108Z,-1.90
2018-02-20T01:41:11.595Z,-1.90
2018-02-20T01:43:39.105Z,-1.90
2018-02-20T01:46:07.361Z,-2.00
2018-02-20T01:48:34.848Z,-2.00
2018-02-20T01:51:07.946Z,-2.00
2018-02-20T01:53:36.210Z,-2.00
2018-02-20T01:56:04.478Z,-2.00
2018-02-20T01:58:33.662Z,-2.10
2018-02-20T02:01:01.985Z,-2.10
2018-02-20T02:03:29.487Z,-2.10
2018-02-20T02:05:57.092Z,-2.10
2018-02-20T02:08:25.347Z,-2.10
2018-02-20T02:10:53.646Z,-2.20
2018-02-20T02:13:21.914Z,-2.20
2018-02-20T02:15:50.178Z,-2.20
2018-02-20T02:18:18.456Z,-2.20
2018-02-20T02:20:46.728Z,-2.20
2018-02-20T02:23:14.259Z,-2.20
2018-02-20T02:25:41.770Z,-2.20
2018-02-20T02:28:10.052Z,-2.20
2018-02-20T02:30:37.561Z,-2.20
2018-02-20T02:33:05.058Z,-2.20
2018-02-20T02:35:32.664Z,-2.20
2018-02-20T02:38:00.156Z,-2.30
2018-02-20T02:40:27.651Z,-2.30
2018-02-20T02:42:55.148Z,-2.30
2018-02-20T02:45:22.652Z,-2.30
2018-02-20T02:47:50.925Z,-2.30
2018-02-20T02:50:19.213Z,-2.30
2018-02-20T02:52:46.727Z,-2.30
2018-02-20T02:55:14.333Z,-2.30
2018-02-20T02:57:41.888Z,-2.40
2018-02-20T03:00:10.168Z,-2.40
2018-02-20T03:02:38.445Z,-2.40
2018-02-20T03:05:06.003Z,-2.40
2018-02-20T03:07:34.280Z,-2.50
2018-02-20T03:10:02.577Z,-2.50
2018-02-20T03:12:30.117Z,-2.50
2018-02-20T03:14:58.395Z,-2.50
2018-02-20T03:17:25.898Z,-2.60
2018-02-20T03:19:53.389Z,-2.60
2018-02-20T03:22:21.690Z,-2.60
2018-02-20T03:24:49.211Z,-2.60
2018-02-20T03:27:16.814Z,-2.60
2018-02-20T03:29:44.306Z,-2.70
2018-02-20T03:32:11.806Z,-2.70
2018-02-20T03:34:40.065Z,-2.70
2018-02-20T03:37:07.569Z,-2.80
2018-02-20T03:39:35.051Z,-2.70
2018-02-20T03:42:02.557Z,-2.80
2018-02-20T03:44:30.826Z,-2.80
2018-02-20T03:46:58.328Z,-2.80
2018-02-20T03:49:25.873Z,-2.80
2018-02-20T03:51:53.386Z,-2.80
2018-02-20T03:54:20.989Z,-2.90
2018-02-20T03:56:48.502Z,-2.90
2018-02-20T03:59:16.114Z,-2.90
2018-02-20T04:01:43.669Z,-2.90
2018-02-20T04:04:11.228Z,-3.00
2018-02-20T04:06:39.577Z,-3.00
2018-02-20T04:09:07.069Z,-3.00
2018-02-20T04:11:34.622Z,-3.00
2018-02-20T04:14:02.893Z,-3.00
2018-02-20T04:16:31.156Z,-3.00
2018-02-20T04:18:59.420Z,-3.00
2018-02-20T04:21:26.929Z,-3.10
2018-02-20T04:23:54.468Z,-3.00
2018-02-20T04:26:22.729Z,-3.10
2018-02-20T04:28:51.021Z,-3.10
2018-02-20T04:31:19.397Z,-3.10
2018-02-20T04:33:47.658Z,-3.10
2018-02-20T04:36:15.961Z,-3.10
2018-02-20T04:38:43.520Z,-3.20
2018-02-20T04:41:11.014Z,-3.20
2018-02-20T04:43:38.512Z,-3.20
2018-02-20T04:46:06.088Z,-3.20
2018-02-20T04:48:34.366Z,-3.20
2018-02-20T04:51:01.865Z,-3.20
2018-02-20T04:53:29.399Z,-3.30
2018-02-20T04:55:56.892Z,-3.30
2018-02-20T04:58:24.500Z,-3.30
2018-02-20T05:00:52.787Z,-3.30
2018-02-20T05:03:20.340Z,-3.30
2018-02-20T05:05:49.398Z,-3.40
2018-02-20T05:08:16.920Z,-3.40
2018-02-20T05:10:44.465Z,-3.40
2018-02-20T05:13:11.963Z,-3.40
2018-02-20T05:15:39.582Z,-3.40
2018-02-20T05:18:07.073Z,-3.40
2018-02-20T05:20:34.580Z,-3.40
2018-02-20T05:23:02.877Z,-3.40
2018-02-20T05:25:30.432Z,-3.40
2018-02-20T05:27:57.936Z,-3.40
2018-02-20T05:30:25.434Z,-3.40
2018-02-20T05:32:53.709Z,-3.40
2018-02-20T05:35:21.977Z,-3.50
2018-02-20T05:37:49.535Z,-3.50
2018-02-20T05:40:17.125Z,-3.50
2018-02-20T05:42:44.641Z,-3.50
2018-02-20T05:45:12.923Z,-3.50
2018-02-20T05:47:40.414Z,-3.50
2018-02-20T05:50:08.300Z,-3.50
2018-02-20T05:52:35.795Z,-3.50
2018-02-20T05:55:03.296Z,-3.50
2018-02-20T05:57:30.858Z,-3.40
2018-02-20T05:59:58.419Z,-3.50
2018-02-20T06:02:25.910Z,-3.40
2018-02-20T06:04:53.438Z,-3.40
2018-02-20T06:07:20.960Z,-3.40
2018-02-20T06:09:48.445Z,-3.40
2018-02-20T06:12:16.749Z,-3.40
2018-02-20T06:14:44.250Z,-3.40
2018-02-20T06:17:11.752Z,-3.40
2018-02-20T06:19:39.237Z,-3.40
2018-02-20T06:22:06.805Z,-3.40
2018-02-20T06:24:34.306Z,-3.30
2018-02-20T06:27:02.568Z,-3.30
2018-02-20T06:29:30.154Z,-3.30
2018-02-20T06:31:58.427Z,-3.30
2018-02-20T06:34:26.704Z,-3.30
2018-02-20T06:36:55.003Z,-3.30
2018-02-20T06:39:22.506Z,-3.30
2018-02-20T06:41:50.101Z,-3.20
2018-02-20T06:44:18.383Z,-3.20
2018-02-20T06:46:46.684Z,-3.20
2018-02-20T06:49:14.214Z,-3.20
2018-02-20T06:51:42.474Z,-3.10
2018-02-20T06:54:10.051Z,-3.20
2018-02-20T06:56:38.345Z,-0.40
2018-02-20T06:59:05.855Z,-0.40
2018-02-20T07:01:33.343Z,-1.10
2018-02-20T07:04:01.624Z,-2.00
2018-02-20T07:06:29.876Z,-2.30
2018-02-20T07:08:57.406Z,-2.30
2018-02-20T07:11:24.901Z,-2.40
2018-02-20T07:13:52.407Z,-2.50
2018-02-20T07:16:19.904Z,-2.60
2018-02-20T07:18:47.472Z,-2.60
2018-02-20T07:21:15.050Z,-2.60
2018-02-20T07:23:43.429Z,-2.70
2018-02-20T07:26:10.984Z,-2.70
2018-02-20T07:28:39.241Z,-2.50
2018-02-20T07:31:07.567Z,-2.40
2018-02-20T07:33:35.086Z,-2.40
2018-02-20T07:36:03.345Z,-2.30
2018-02-20T07:38:30.846Z,-2.30
2018-02-20T07:40:58.364Z,-2.30
2018-02-20T07:43:25.912Z,-2.20
2018-02-20T07:45:53.418Z,-2.20
2018-02-20T07:48:20.944Z,-2.00
2018-02-20T07:50:48.437Z,-2.00
2018-02-20T07:53:16.832Z,-2.00
2018-02-20T07:55:44.373Z,-2.00
2018-02-20T07:58:12.650Z,-1.90
2018-02-20T08:00:40.162Z,-1.90
2018-02-20T08:03:08.472Z,-1.70
2018-02-20T08:05:36.760Z,-1.40
2018-02-20T08:08:04.301Z,-1.40
2018-02-20T08:10:32.083Z,-1.30
2018-02-20T08:13:00.367Z,-0.90
2018-02-20T08:15:28.185Z,-1.00
2018-02-20T08:17:55.676Z,-0.70
2018-02-20T08:20:23.937Z,-0.70
2018-02-20T08:22:51.482Z,-0.70
2018-02-20T08:25:18.980Z,-0.60
2018-02-20T08:27:48.110Z,-0.40
2018-02-20T08:30:15.668Z,-0.40
2018-02-20T08:32:43.204Z,-0.20
2018-02-20T08:35:10.695Z,0.00
2018-02-20T08:37:38.191Z,0.20
2018-02-20T08:40:05.718Z,0.40
2018-02-20T08:42:33.268Z,0.30
2018-02-20T08:45:00.810Z,0.60
2018-02-20T08:47:28.305Z,0.80
2018-02-20T08:49:55.787Z,1.00
2018-02-20T08:52:23.307Z,1.30
2018-02-20T08:54:50.802Z,1.50
2018-02-20T08:57:19.064Z,1.80
2018-02-20T08:59:46.693Z,1.80
2018-02-20T09:02:14.189Z,2.00
2018-02-20T09:04:42.520Z,2.10
2018-02-20T09:07:10.161Z,2.10
2018-02-20T09:09:40.400Z,2.30
2018-02-20T09:12:07.886Z,2.20
2018-02-20T09:14:35.384Z,2.40
2018-02-20T09:17:03.678Z,2.90
2018-02-20T09:19:31.168Z,2.90
2018-02-20T09:21:58.683Z,3.10
2018-02-20T09:24:26.952Z,3.40
2018-02-20T09:26:54.477Z,3.40
2018-02-20T09:29:21.975Z,3.60
2018-02-20T09:31:50.244Z,3.30
2018-02-20T09:34:18.541Z,3.40
2018-02-20T09:36:46.103Z,3.40
2018-02-20T09:39:13.666Z,3.20
2018-02-20T09:41:43.874Z,3.30
2018-02-20T09:44:11.437Z,3.50
2018-02-20T09:46:39.688Z,3.90
2018-02-20T09:49:07.299Z,3.90
2018-02-20T09:51:34.801Z,4.20
2018-02-20T09:54:02.879Z,4.40
2018-02-20T09:56:30.401Z,4.60
2018-02-20T09:58:57.957Z,4.90
2018-02-20T10:01:25.492Z,4.80
2018-02-20T10:03:53.130Z,5.00
2018-02-20T10:06:21.471Z,5.40
2018-02-20T10:08:48.989Z,5.40
2018-02-20T10:11:16.483Z,5.10
2018-02-20T10:13:43.971Z,5.10
2018-02-20T10:16:11.528Z,5.10
2018-02-20T10:18:39.833Z,5.40
2018-02-20T10:21:08.103Z,5.60
2018-02-20T10:23:36.373Z,5.40
2018-02-20T10:26:03.944Z,5.40
2018-02-20T10:28:32.220Z,5.60
2018-02-20T10:30:59.792Z,5.60
2018-02-20T10:33:27.339Z,5.50
2018-02-20T10:35:55.657Z,5.90
2018-02-20T10:38:23.140Z,5.80
2018-02-20T10:40:50.676Z,5.90
2018-02-20T10:43:18.202Z,6.10
2018-02-20T10:45:45.700Z,6.20
2018-02-20T10:48:13.256Z,6.40
2018-02-20T10:50:40.764Z,6.70
2018-02-20T10:53:09.054Z,6.80
2018-02-20T10:55:36.615Z,6.80
2018-02-20T10:58:04.994Z,6.90
2018-02-20T11:00:32.547Z,6.90
2018-02-20T11:03:00.805Z,7.00
2018-02-20T11:05:29.101Z,7.10
2018-02-20T11:07:57.410Z,7.20
2018-02-20T11:10:24.910Z,7.20
2018-02-20T11:12:52.496Z,7.20
2018-02-20T11:15:20.752Z,7.40
2018-02-20T11:17:48.261Z,7.40
2018-02-20T11:20:15.751Z,7.40
2018-02-20T11:22:43.273Z,7.30
2018-02-20T11:25:10.805Z,7.50
2018-02-20T11:27:39.058Z,8.00
2018-02-20T11:30:06.577Z,7.90
2018-02-20T11:32:34.065Z,7.80
2018-02-20T11:35:01.626Z,7.80
2018-02-20T11:37:29.241Z,7.90
2018-02-20T11:39:56.736Z,8.20
2018-02-20T11:42:24.234Z,8.30
2018-02-20T11:44:52.543Z,8.10
2018-02-20T11:47:20.048Z,8.10
2018-02-20T11:49:47.788Z,8.40
2018-02-20T11:52:15.325Z,8.60
2018-02-20T11:54:42.817Z,8.60
2018-02-20T11:57:10.416Z,8.80
2018-02-20T11:59:38.707Z,8.90
2018-02-20T12:02:06.284Z,8.80
2018-02-20T12:04:34.145Z,9.30
2018-02-20T12:07:01.711Z,9.30
2018-02-20T12:09:29.255Z,9.40
2018-02-20T12:11:56.847Z,9.50
2018-02-20T12:14:24.399Z,9.60
2018-02-20T12:16:51.891Z,9.90
2018-02-20T12:19:19.407Z,9.90
2018-02-20T12:21:46.946Z,10.00
2018-02-20T12:24:14.471Z,9.60
2018-02-20T12:26:41.976Z,9.80
2018-02-20T12:29:09.478Z,10.00
2018-02-20T12:31:36.978Z,10.00
2018-02-20T12:34:04.559Z,10.20
2018-02-20T12:36:32.099Z,10.40
2018-02-20T12:38:59.593Z,10.10
2018-02-20T12:41:27.124Z,10.20
2018-02-20T12:43:54.620Z,10.40
2018-02-20T12:46:22.163Z,10.30
2018-02-20T12:48:49.671Z,10.20
2018-02-20T12:51:17.931Z,9.70
2018-02-20T12:53:45.514Z,9.60
2018-02-20T12:56:13.783Z,9.70
2018-02-20T12:58:48.804Z,9.80
2018-02-20T13:01:16.357Z,9.80
2018-02-20T13:03:43.839Z,9.70
2018-02-20T13:06:12.109Z,9.40
2018-02-20T13:08:40.374Z,9.00
2018-02-20T13:11:07.875Z,9.00
2018-02-20T13:13:35.408Z,8.70
2018-02-20T13:16:03.673Z,8.70
2018-02-20T13:18:31.168Z,8.70
2018-02-20T13:20:58.674Z,8.80
2018-02-20T13:23:26.168Z,8.70
2018-02-20T13:25:56.523Z,8.60
2018-02-20T13:28:24.008Z,8.60
2018-02-20T13:30:52.707Z,8.60
2018-02-20T13:33:20.232Z,8.60
2018-02-20T13:35:47.761Z,8.60
2018-02-20T13:38:16.025Z,8.40
2018-02-20T13:40:44.296Z,8.50
2018-02-20T13:43:11.841Z,8.50
2018-02-20T13:45:39.337Z,8.20
2018-02-20T13:48:06.829Z,8.10
2018-02-20T13:50:34.368Z,8.30
2018-02-20T13:53:01.869Z,8.10
2018-02-20T13:55:29.376Z,7.90
2018-02-20T13:57:56.934Z,7.80
2018-02-20T14:00:24.824Z,7.90
2018-02-20T14:02:52.338Z,7.70
2018-02-20T14:05:19.913Z,7.50
2018-02-20T14:07:47.431Z,7.40
2018-02-20T14:10:14.985Z,7.40
2018-02-20T14:12:42.503Z,7.20
2018-02-20T14:15:10.037Z,7.10
2018-02-20T14:17:38.292Z,7.10
2018-02-20T14:20:06.570Z,7.00
2018-02-20T14:22:34.073Z,7.00
2018-02-20T14:25:01.614Z,7.10
2018-02-20T14:27:29.876Z,7.10
2018-02-20T14:29:57.380Z,7.10
2018-02-20T14:32:24.873Z,7.10
2018-02-20T14:34:52.397Z,7.00
2018-02-20T14:37:19.929Z,7.00
2018-02-20T14:39:48.217Z,6.80
2018-02-20T14:42:15.769Z,6.70
2018-02-20T14:44:43.323Z,6.90
2018-02-20T14:47:11.596Z,7.00
2018-02-20T14:49:39.878Z,7.10
2018-02-20T14:52:08.145Z,6.90
2018-02-20T14:54:35.694Z,6.80
2018-02-20T14:57:03.209Z,6.60
2018-02-20T14:59:30.695Z,6.70
2018-02-20T15:01:58.209Z,6.40
2018-02-20T15:04:25.704Z,6.30
2018-02-20T15:06:53.215Z,6.20
2018-02-20T15:09:20.708Z,6.20
2018-02-20T15:11:48.717Z,6.20
2018-02-20T15:14:16.996Z,6.00
2018-02-20T15:16:45.395Z,6.10
2018-02-20T15:19:12.959Z,6.10
2018-02-20T15:21:40.539Z,6.10
2018-02-20T15:24:08.064Z,5.90
2018-02-20T15:26:36.410Z,5.60
2018-02-20T15:29:03.911Z,5.60
2018-02-20T15:31:31.468Z,5.60
2018-02-20T15:33:59.756Z,5.20
2018-02-20T15:36:27.288Z,5.20
2018-02-20T15:38:55.551Z,4.90
2018-02-20T15:41:23.059Z,4.90
2018-02-20T15:43:50.605Z,4.90
2018-02-20T15:46:18.152Z,4.80
2018-02-20T15:48:46.416Z,4.60
2018-02-20T15:51:14.693Z,4.60
2018-02-20T15:53:42.950Z,4.50
2018-02-20T15:56:11.229Z,4.50
2018-02-20T15:58:38.821Z,4.40
2018-02-20T16:01:06.323Z,4.20
2018-02-20T16:03:34.470Z,4.20
2018-02-20T16:06:02.840Z,4.00
2018-02-20T16:08:30.336Z,3.90
2018-02-20T16:10:57.852Z,3.90
2018-02-20T16:13:25.354Z,3.70
2018-02-20T16:15:55.428Z,3.60
2018-02-20T16:18:22.932Z,3.50
2018-02-20T16:20:50.448Z,3.40
2018-02-20T16:23:17.968Z,3.20
2018-02-20T16:25:47.002Z,3.10
2018-02-20T16:28:14.611Z,3.10
2018-02-20T16:30:42.216Z,3.00
2018-02-20T16:33:11.051Z,2.90
2018-02-20T16:35:38.607Z,2.90
2018-02-20T16:38:06.120Z,2.80
2018-02-20T16:40:33.702Z,2.80
2018-02-20T16:43:01.366Z,2.70
2018-02-20T16:45:28.885Z,2.70
2018-02-20T16:47:57.157Z,2.50
2018-02-20T16:50:25.603Z,2.50
2018-02-20T16:52:53.113Z,2.50
2018-02-20T16:55:21.412Z,2.30
2018-02-20T16:57:48.921Z,2.30
2018-02-20T17:00:16.444Z,2.30
2018-02-20T17:02:43.936Z,2.20
2018-02-20T17:05:11.664Z,2.10
2018-02-20T17:07:39.203Z,2.10
2018-02-20T17:10:06.720Z,2.00
2018-02-20T17:12:34.232Z,1.90
2018-02-20T17:15:01.740Z,1.90
2018-02-20T17:17:29.349Z,1.80
2018-02-20T17:19:56.940Z,1.80
2018-02-20T17:22:24.494Z,1.70
2018-02-20T17:24:52.039Z,1.70
2018-02-20T17:27:19.561Z,1.60
2018-02-20T17:29:48.100Z,1.50
2018-02-20T17:32:15.616Z,1.50
2018-02-20T17:34:43.918Z,1.40
2018-02-20T17:37:12.193Z,1.40
2018-02-20T17:39:39.750Z,1.40
2018-02-20T17:42:07.262Z,1.30
2018-02-20T17:44:34.954Z,1.30
2018-02-20T17:47:02.459Z,1.20
2018-02-20T17:49:29.986Z,1.20
2018-02-20T17:51:57.552Z,1.20
2018-02-20T17:54:25.214Z,1.10
2018-02-20T17:56:52.706Z,1.10
2018-02-20T17:59:20.256Z,1.00
2018-02-20T18:01:47.768Z,1.00
2018-02-20T18:04:15.277Z,0.90
2018-02-20T18:06:42.772Z,0.90
2018-02-20T18:09:11.060Z,0.80
2018-02-20T18:11:38.554Z,0.70
2018-02-20T18:14:06.079Z,0.70
2018-02-20T18:16:33.597Z,0.70
2018-02-20T18:19:01.107Z,0.60
2018-02-20T18:21:28.607Z,0.60
2018-02-20T18:23:56.100Z,0.60
2018-02-20T18:26:24.397Z,0.50
2018-02-20T18:28:51.973Z,0.40
2018-02-20T18:31:19.504Z,0.40
2018-02-20T18:33:47.804Z,0.40
2018-02-20T18:36:15.358Z,0.40
2018-02-20T18:38:42.939Z,0.40
2018-02-20T18:41:10.456Z,0.60
2018-02-20T18:43:38.793Z,0.70
2018-02-20T18:46:06.445Z,0.70
2018-02-20T18:48:34.100Z,0.70
2018-02-20T18:51:02.315Z,0.60
2018-02-20T18:53:29.808Z,0.60
2018-02-20T18:55:57.313Z,0.60
2018-02-20T18:58:24.831Z,0.60
2018-02-20T19:00:52.386Z,0.60
2018-02-20T19:03:19.897Z,0.60
2018-02-20T19:05:47.501Z,0.60
2018-02-20T19:08:15.040Z,0.60
2018-02-20T19:10:43.300Z,0.50
2018-02-20T19:13:10.788Z,0.50
2018-02-20T19:15:39.078Z,0.50
2018-02-20T19:18:06.657Z,0.50
2018-02-20T19:20:34.161Z,0.50
2018-02-20T19:23:01.657Z,0.30
2018-02-20T19:25:29.163Z,0.30
2018-02-20T19:27:56.658Z,0.30
2018-02-20T19:30:24.934Z,0.20
2018-02-20T19:32:53.214Z,0.20
2018-02-20T19:35:21.475Z,0.20
2018-02-20T19:37:49.738Z,0.10
2018-02-20T19:40:18.239Z,0.10
2018-02-20T19:42:46.501Z,0.10
2018-02-20T19:45:15.534Z,0.10
2018-02-20T19:47:43.081Z,0.10
2018-02-20T19:50:11.355Z,0.10
2018-02-20T19:52:39.751Z,0.10
2018-02-20T19:55:07.264Z,0.10
2018-02-20T19:57:34.747Z,0.20
2018-02-20T20:00:03.650Z,0.10
2018-02-20T20:02:31.139Z,0.10
2018-02-20T20:04:58.683Z,0.10
2018-02-20T20:07:26.592Z,0.20
2018-02-20T20:09:54.090Z,0.10
2018-02-20T20:12:22.367Z,0.00
2018-02-20T20:14:49.877Z,-0.10
2018-02-20T20:17:17.660Z,-0.10
2018-02-20T20:19:45.191Z,-0.10
2018-02-20T20:22:12.822Z,-0.10
2018-02-20T20:24:41.094Z,-0.10
2018-02-20T20:27:08.680Z,-0.20
2018-02-20T20:29:36.236Z,-0.10
2018-02-20T20:32:03.756Z,-0.10
2018-02-20T20:34:32.016Z,-0.20
2018-02-20T20:37:01.025Z,-0.20
2018-02-20T20:39:29.789Z,-0.10
2018-02-20T20:41:57.380Z,-0.20
2018-02-20T20:44:25.662Z,-0.20
2018-02-20T20:46:53.176Z,-0.20
2018-02-20T20:49:20.687Z,-0.10
2018-02-20T20:51:48.179Z,-0.20
2018-02-20T20:54:15.668Z,-0.20
2018-02-20T20:56:44.053Z,-0.30
2018-02-20T20:59:12.335Z,-0.40
2018-02-20T21:01:40.614Z,-0.30
2018-02-20T21:04:09.368Z,-0.40
2018-02-20T21:06:36.969Z,-0.40
2018-02-20T21:09:05.250Z,-0.40
2018-02-20T21:11:33.524Z,-0.40
2018-02-20T21:14:01.790Z,-0.50
2018-02-20T21:16:29.486Z,-0.50
2018-02-20T21:18:57.109Z,-0.60
2018-02-20T21:21:25.469Z,-0.20
2018-02-20T21:23:52.933Z,-0.20
2018-02-20T21:26:20.524Z,-0.30
2018-02-20T21:28:48.800Z,-0.60
2018-02-20T21:31:17.092Z,-0.70
2018-02-20T21:33:45.413Z,-0.70
2018-02-20T21:36:15.072Z,-0.70
2018-02-20T21:38:43.566Z,-0.80
2018-02-20T21:41:11.797Z,-1.00
2018-02-20T21:43:39.288Z,-1.00
2018-02-20T21:46:07.408Z,-1.00
2018-02-20T21:48:35.973Z,-1.00
2018-02-20T21:51:03.686Z,-1.00
2018-02-20T21:53:31.960Z,-1.10
2018-02-20T21:56:00.248Z,-1.10
2018-02-20T21:58:27.813Z,-1.10
2018-02-20T22:00:56.078Z,-1.20
2018-02-20T22:03:24.375Z,-1.20
2018-02-20T22:05:51.937Z,-1.20
2018-02-20T22:08:19.454Z,-1.30
2018-02-20T22:10:47.050Z,-1.30
2018-02-20T22:13:14.544Z,-1.30
2018-02-20T22:15:42.039Z,-1.40
2018-02-20T22:18:10.899Z,-1.40
2018-02-20T22:20:38.417Z,-1.40
2018-02-20T22:23:06.016Z,-1.40
2018-02-20T22:25:33.562Z,-1.40
2018-02-20T22:28:01.092Z,-1.40
2018-02-20T22:30:28.649Z,-1.50
2018-02-20T22:32:56.934Z,-1.50
2018-02-20T22:35:24.505Z,-1.50
2018-02-20T22:37:52.057Z,-1.60
2018-02-20T22:40:19.586Z,-1.60
2018-02-20T22:42:47.845Z,-1.60
2018-02-20T22:45:15.347Z,-1.60
2018-02-20T22:47:42.836Z,-1.60
2018-02-20T22:50:11.129Z,-1.60
2018-02-20T22:52:38.617Z,-1.60
2018-02-20T22:55:06.913Z,-1.70
2018-02-20T22:57:34.461Z,-1.70
2018-02-20T23:00:02.740Z,-1.80
2018-02-20T23:02:31.037Z,-1.80
2018-02-20T23:04:58.550Z,-1.80
2018-02-20T23:07:26.144Z,-1.80
2018-02-20T23:09:54.833Z,-1.90
2018-02-20T23:12:22.332Z,-1.90
2018-02-20T23:14:49.973Z,-1.90
2018-02-20T23:17:17.475Z,-1.90
2018-02-20T23:19:45.482Z,-2.00
2018-02-20T23:22:12.982Z,-2.00
2018-02-20T23:24:40.482Z,-2.10
2018-02-20T23:27:08.743Z,-2.10
2018-02-20T23:29:36.248Z,-2.10
2018-02-20T23:32:03.805Z,-2.10
2018-02-20T23:34:31.638Z,-2.20
2018-02-20T23:36:59.901Z,-2.20
2018-02-20T23:39:28.183Z,-2.30
2018-02-20T23:41:55.688Z,-2.30
2018-02-20T23:44:23.228Z,-2.30
2018-02-20T23:46:51.265Z,-2.30
2018-02-20T23:49:18.883Z,-2.30
2018-02-20T23:51:46.373Z,-2.30
2018-02-20T23:54:13.881Z,-2.30
2018-02-20T23:56:41.376Z,-2.30
2018-02-20T23:59:08.891Z,-2.40
